Time;durP1;ratioP1;P1;durP2;ratioP2;P2;SDS_P1;SDS_P2;PMS_P1;PMS_P2;Temp;Humidity;BMP_temperature;BMP_pressure;BME280_temperature;BME280_humidity;BME280_pressure;Samples;Min_cycle;Max_cycle;Signal;HPM_P1;HPM_P2
2023/03/06 00:02:25;;;;;;;12.83;8.63;;;2.60;99.90;;;;;;5055035;28;20180;-83
2023/03/06 00:04:52;;;;;;;11.93;9.17;;;2.60;99.90;;;;;;5054121;28;20619;-83
2023/03/06 00:07:17;;;;;;;13.67;9.33;;;2.60;99.90;;;;;;5053655;28;20209;-83
2023/03/06 00:09:43;;;;;;;12.53;8.90;;;2.70;99.90;;;;;;5054045;28;20186;-83
2023/03/06 00:12:09;;;;;;;12.73;8.83;;;2.60;99.90;;;;;;5053690;28;20205;-83
2023/03/06 00:14:34;;;;;;;14.47;8.80;;;2.70;99.90;;;;;;5054502;28;20175;-83
2023/03/06 00:17:00;;;;;;;14.90;9.20;;;2.70;99.90;;;;;;5054766;28;20198;-83
2023/03/06 00:19:26;;;;;;;14.17;9.73;;;2.70;99.90;;;;;;5053800;28;20170;-83
2023/03/06 00:21:52;;;;;;;16.60;10.20;;;2.70;99.90;;;;;;5053343;28;20166;-83
2023/03/06 00:24:17;;;;;;;14.77;9.73;;;2.70;99.90;;;;;;5053603;28;20175;-83
2023/03/06 00:26:43;;;;;;;12.97;9.63;;;2.60;99.90;;;;;;5053276;28;20213;-83
2023/03/06 00:29:09;;;;;;;15.33;10.33;;;2.60;99.90;;;;;;5054866;28;20178;-83
2023/03/06 00:31:34;;;;;;;13.93;9.20;;;2.60;99.90;;;;;;5054262;28;20190;-83
2023/03/06 00:34:01;;;;;;;14.97;10.33;;;2.60;99.90;;;;;;5053233;28;20188;-83
2023/03/06 00:36:26;;;;;;;12.63;8.73;;;2.70;99.90;;;;;;5052560;28;20336;-83
2023/03/06 00:38:52;;;;;;;13.57;8.47;;;2.70;99.90;;;;;;5053035;28;20245;-83
2023/03/06 00:41:17;;;;;;;13.73;9.20;;;2.70;99.90;;;;;;5054238;28;20279;-83
2023/03/06 00:43:43;;;;;;;13.57;9.10;;;2.80;99.90;;;;;;5053188;28;20196;-83
2023/03/06 00:46:09;;;;;;;14.87;9.60;;;2.80;99.90;;;;;;5052874;28;20205;-83
2023/03/06 00:48:34;;;;;;;15.20;9.10;;;2.90;99.90;;;;;;5053016;28;20246;-83
2023/03/06 00:51:00;;;;;;;15.53;9.70;;;2.80;99.90;;;;;;5053739;28;20180;-83
2023/03/06 00:53:26;;;;;;;14.37;9.37;;;2.80;99.90;;;;;;5053395;28;20178;-83
2023/03/06 00:55:51;;;;;;;13.97;9.00;;;2.80;99.90;;;;;;5053055;28;20210;-83
2023/03/06 00:58:17;;;;;;;14.27;9.27;;;2.80;99.90;;;;;;5053242;28;20178;-83
2023/03/06 01:00:43;;;;;;;14.80;9.17;;;2.70;99.90;;;;;;5052780;28;20174;-83
2023/03/06 01:03:09;;;;;;;13.70;9.60;;;2.70;99.90;;;;;;5053368;28;20182;-83
2023/03/06 01:05:36;;;;;;;16.30;9.47;;;2.70;99.90;;;;;;5052506;28;20220;-83
2023/03/06 01:08:02;;;;;;;18.13;9.63;;;2.50;99.90;;;;;;5052679;28;20174;-83
2023/03/06 01:10:28;;;;;;;14.10;9.00;;;2.60;99.90;;;;;;5053371;28;20308;-83
2023/03/06 01:13:03;;;;;;;12.80;8.80;;;2.60;99.90;;;;;;5052506;28;20178;-83
2023/03/06 01:15:29;;;;;;;13.07;8.47;;;2.60;99.90;;;;;;5052460;28;20219;-83
2023/03/06 01:17:55;;;;;;;14.27;9.53;;;2.50;99.90;;;;;;5052476;28;20177;-83
2023/03/06 01:20:21;;;;;;;16.00;9.67;;;2.50;99.90;;;;;;5052430;28;20185;-83
2023/03/06 01:22:46;;;;;;;14.70;8.67;;;2.50;99.90;;;;;;5052724;28;20269;-83
2023/03/06 01:25:12;;;;;;;14.03;9.17;;;2.50;99.90;;;;;;5053742;28;20740;-83
2023/03/06 01:27:38;;;;;;;14.40;9.67;;;2.50;99.90;;;;;;5052282;28;20289;-83
2023/03/06 01:30:04;;;;;;;13.57;8.60;;;2.50;99.90;;;;;;5052346;28;20281;-83
2023/03/06 01:32:30;;;;;;;17.80;8.87;;;2.50;99.90;;;;;;5052327;28;20209;-83
2023/03/06 01:34:56;;;;;;;10.80;8.33;;;2.50;99.90;;;;;;5052211;28;20174;-83
2023/03/06 01:37:22;;;;;;;12.20;7.97;;;2.50;99.90;;;;;;5052233;28;20217;-83
2023/03/06 01:39:47;;;;;;;13.17;9.20;;;2.50;99.90;;;;;;5052141;28;20550;-83
2023/03/06 01:42:13;;;;;;;12.83;8.90;;;2.60;99.90;;;;;;5053389;28;20399;-83
2023/03/06 01:45:00;;;;;;;14.73;8.80;;;2.60;99.90;;;;;;5051984;28;20209;-83
2023/03/06 01:47:27;;;;;;;14.20;8.90;;;2.60;99.90;;;;;;5051844;28;20201;-83
2023/03/06 01:49:52;;;;;;;13.73;9.27;;;2.60;99.90;;;;;;5052882;28;20204;-83
2023/03/06 01:52:22;;;;;;;16.03;9.13;;;2.60;99.90;;;;;;5052051;28;20174;-83
2023/03/06 01:55:00;;;;;;;12.90;8.80;;;2.70;99.90;;;;;;5052003;28;20213;-83
2023/03/06 01:57:37;;;;;;;16.03;9.63;;;2.70;99.90;;;;;;5052436;28;20197;-83
2023/03/06 02:00:13;;;;;;;14.30;9.70;;;2.80;99.90;;;;;;5052119;28;20221;-83
2023/03/06 07:36:44;;;;;;;14.13;11.63;;;3.20;99.90;;;;;;5621115;22;20268;-82
2023/03/06 07:39:09;;;;;;;16.00;12.83;;;3.40;99.90;;;;;;5074584;28;20659;-82
2023/03/06 07:41:35;;;;;;;13.77;12.20;;;3.50;99.90;;;;;;5074716;28;20181;-82
2023/03/06 07:44:01;;;;;;;15.47;12.80;;;3.50;99.90;;;;;;5075329;28;20178;-82
2023/03/06 07:46:27;;;;;;;15.07;13.50;;;3.60;99.90;;;;;;5065793;28;20222;-82
2023/03/06 07:48:52;;;;;;;13.23;11.40;;;3.60;99.90;;;;;;5054121;28;20185;-82
2023/03/06 07:51:20;;;;;;;15.50;11.83;;;3.50;99.90;;;;;;5054007;28;20182;-82
2023/03/06 07:53:47;;;;;;;15.33;11.10;;;3.50;99.90;;;;;;5054056;28;20186;-82
2023/03/06 07:56:13;;;;;;;13.13;11.37;;;3.40;99.90;;;;;;5053948;28;20210;-82
2023/03/06 07:58:41;;;;;;;16.27;11.90;;;3.30;99.90;;;;;;5054073;28;20192;-82
2023/03/06 08:01:13;;;;;;;14.73;11.80;;;3.30;99.90;;;;;;5053940;28;20182;-82
2023/03/06 08:03:39;;;;;;;13.57;11.73;;;3.40;99.90;;;;;;5055098;28;20277;-82
2023/03/06 08:06:10;;;;;;;14.07;12.17;;;3.50;99.90;;;;;;5054592;28;20277;-82
2023/03/06 08:08:41;;;;;;;15.13;11.63;;;3.50;99.90;;;;;;5053745;28;20193;-83
2023/03/06 08:11:08;;;;;;;14.73;12.70;;;3.70;99.90;;;;;;5054580;28;20182;-83
2023/03/06 08:13:34;;;;;;;16.77;13.57;;;3.70;99.90;;;;;;5053644;28;20178;-83
2023/03/06 08:16:03;;;;;;;20.77;15.43;;;3.90;99.90;;;;;;5053634;28;20201;-83
2023/03/06 08:18:28;;;;;;;19.20;14.13;;;4.10;99.90;;;;;;5054154;28;20223;-83
2023/03/06 08:21:05;;;;;;;19.83;14.57;;;4.10;99.90;;;;;;5054442;28;20182;-83
2023/03/06 08:23:32;;;;;;;23.23;18.17;;;4.30;99.90;;;;;;5054960;28;20185;-83
2023/03/06 08:25:59;;;;;;;13.47;12.07;;;4.40;99.90;;;;;;5054506;28;20210;-83
2023/03/06 08:28:25;;;;;;;23.57;17.63;;;4.40;99.90;;;;;;5053324;28;20224;-83
2023/03/06 08:30:50;;;;;;;20.27;16.30;;;4.50;99.90;;;;;;5053577;28;20260;-83
2023/03/06 08:33:16;;;;;;;23.37;16.30;;;4.60;99.90;;;;;;5053259;28;20177;-83
2023/03/06 08:35:42;;;;;;;15.00;12.63;;;4.60;99.90;;;;;;5053930;28;20245;-83
2023/03/06 08:38:07;;;;;;;20.57;14.90;;;4.70;99.90;;;;;;5054050;28;20171;-83
2023/03/06 08:40:33;;;;;;;15.80;12.80;;;4.60;99.90;;;;;;5053146;28;20231;-83
2023/03/06 08:42:58;;;;;;;21.17;14.93;;;4.70;99.90;;;;;;5052954;28;20174;-83
2023/03/06 08:45:24;;;;;;;14.00;12.60;;;4.60;99.90;;;;;;5053280;28;20280;-83
2023/03/06 08:47:49;;;;;;;17.17;13.33;;;4.70;99.90;;;;;;5053030;28;20208;-83
2023/03/06 08:50:15;;;;;;;15.03;13.20;;;4.70;99.90;;;;;;5053212;28;20182;-83
2023/03/06 08:52:41;;;;;;;16.43;13.07;;;4.80;99.90;;;;;;5053963;28;20625;-83
2023/03/06 08:55:07;;;;;;;12.97;11.37;;;4.80;99.90;;;;;;5052931;28;20209;-83
2023/03/06 08:57:32;;;;;;;11.77;10.50;;;4.90;99.90;;;;;;5051917;28;20202;-83
2023/03/06 08:59:58;;;;;;;14.70;12.97;;;5.10;99.90;;;;;;5053043;28;20236;-83
2023/03/06 09:06:04;;;;;;;19.20;14.63;;;5.40;99.90;;;;;;5012386;28;20218;-83
2023/03/06 09:08:30;;;;;;;24.87;16.23;;;5.60;99.90;;;;;;4995793;28;20198;-83
2023/03/06 09:10:55;;;;;;;12.17;10.87;;;5.70;99.90;;;;;;5046916;28;20264;-83
2023/03/06 09:13:21;;;;;;;12.05;10.85;;;5.60;99.90;;;;;;5052869;28;20637;-83
2023/03/06 09:15:47;;;;;;;9.80;8.70;;;5.70;99.90;;;;;;5052399;28;20213;-83
2023/03/06 09:18:12;;;;;;;11.03;9.77;;;5.80;99.90;;;;;;5052494;28;20196;-83
2023/03/06 09:20:38;;;;;;;9.15;8.25;;;5.90;99.90;;;;;;5052436;28;20186;-83
2023/03/06 09:23:03;;;;;;;9.15;8.23;;;6.00;99.90;;;;;;5052435;28;20285;-83
2023/03/06 09:25:29;;;;;;;11.70;8.75;;;6.00;99.90;;;;;;5052257;28;20293;-83
2023/03/06 09:27:54;;;;;;;24.60;10.43;;;6.10;99.90;;;;;;5052697;28;20178;-83
2023/03/06 09:30:20;;;;;;;18.23;10.15;;;6.10;99.90;;;;;;5052304;28;20200;-83
2023/03/06 09:32:45;;;;;;;19.05;10.43;;;6.00;99.90;;;;;;5052303;28;20189;-83
2023/03/06 09:35:13;;;;;;;11.38;9.40;;;6.00;99.90;;;;;;5052144;28;20184;-83
2023/03/06 09:37:39;;;;;;;10.48;8.70;;;6.00;99.90;;;;;;5052566;28;20236;-83
2023/03/06 09:40:05;;;;;;;9.02;8.13;;;6.00;99.90;;;;;;5052319;28;20191;-83
2023/03/06 09:42:32;;;;;;;11.00;9.27;;;5.80;99.90;;;;;;5052528;28;20222;-83
2023/03/06 09:45:00;;;;;;;9.90;8.90;;;5.90;99.90;;;;;;5052068;28;20523;-83
2023/03/06 09:47:34;;;;;;;10.70;9.60;;;5.90;99.90;;;;;;5052359;28;20209;-83
2023/03/06 09:50:25;;;;;;;11.65;9.30;;;5.90;99.90;;;;;;5052183;28;20174;-83
2023/03/06 09:53:28;;;;;;;10.75;9.65;;;5.90;99.90;;;;;;5052248;28;20253;-83
2023/03/06 09:56:15;;;;;;;11.32;10.13;;;5.60;99.90;;;;;;5052668;28;20256;-83
2023/03/06 09:58:49;;;;;;;11.18;10.07;;;5.60;99.90;;;;;;5052995;28;20201;-83
2023/03/06 10:01:28;;;;;;;10.88;9.77;;;5.50;99.90;;;;;;5054083;28;20168;-83
2023/03/06 10:04:09;;;;;;;12.17;10.77;;;5.40;99.90;;;;;;5053457;28;20162;-83
2023/03/06 10:06:57;;;;;;;11.13;10.02;;;5.20;99.90;;;;;;5051834;28;20256;-83
2023/03/06 10:09:45;;;;;;;12.47;10.90;;;5.00;99.90;;;;;;5056017;28;20170;-83
2023/03/06 10:12:24;;;;;;;16.27;14.57;;;4.80;99.90;;;;;;5055390;28;20189;-83
2023/03/06 10:15:07;;;;;;;12.93;11.63;;;4.70;99.90;;;;;;5056751;28;20197;-83
2023/03/06 10:17:37;;;;;;;14.97;11.13;;;4.80;99.90;;;;;;5057125;28;20194;-83
2023/03/06 10:20:20;;;;;;;12.00;10.80;;;4.80;99.90;;;;;;5055926;28;20174;-83
2023/03/06 10:23:20;;;;;;;12.50;11.23;;;4.70;99.90;;;;;;5055699;28;20162;-83
2023/03/06 10:25:52;;;;;;;13.33;12.03;;;4.80;99.90;;;;;;5055691;28;20285;-83
2023/03/06 10:28:34;;;;;;;15.00;11.20;;;4.90;99.90;;;;;;5056531;28;20183;-83
2023/03/06 10:31:19;;;;;;;13.37;11.97;;;4.90;99.90;;;;;;5054993;28;20169;-83
2023/03/06 10:34:12;;;;;;;12.57;11.27;;;5.10;99.90;;;;;;5055046;28;20174;-83
2023/03/06 10:36:37;;;;;;;12.37;11.17;;;5.10;99.90;;;;;;5055295;28;20241;-83
2023/03/06 10:39:12;;;;;;;12.67;11.43;;;5.30;99.90;;;;;;5055545;28;20637;-83
2023/03/06 10:41:38;;;;;;;13.30;12.00;;;5.60;99.90;;;;;;5055426;28;20177;-83
2023/03/06 10:44:03;;;;;;;12.52;11.25;;;5.90;99.90;;;;;;5055372;28;20185;-83
2023/03/06 10:46:32;;;;;;;12.90;11.60;;;6.20;99.90;;;;;;5055222;28;20259;-83
2023/03/06 10:49:03;;;;;;;13.07;11.77;;;6.30;99.90;;;;;;5055356;28;20185;-83
2023/03/06 10:51:30;;;;;;;12.75;11.45;;;6.50;99.90;;;;;;5055245;28;20166;-83
2023/03/06 10:54:17;;;;;;;12.38;11.18;;;6.60;99.30;;;;;;5056387;28;20174;-83
2023/03/06 10:56:44;;;;;;;13.25;11.95;;;6.70;99.00;;;;;;5055997;28;20285;-83
2023/03/06 10:59:24;;;;;;;12.20;11.02;;;6.50;99.40;;;;;;5055665;28;20185;-83
2023/03/06 11:01:53;;;;;;;12.13;10.93;;;6.60;99.30;;;;;;5055970;28;20178;-83
2023/03/06 11:04:33;;;;;;;12.45;11.15;;;6.60;98.80;;;;;;5056297;28;20170;-83
2023/03/06 11:07:13;;;;;;;14.20;12.73;;;6.40;98.50;;;;;;5054797;28;20256;-83
2023/03/06 11:09:39;;;;;;;13.20;11.82;;;6.50;99.60;;;;;;5055810;28;20170;-83
2023/03/06 11:12:49;;;;;;;13.30;11.93;;;6.70;99.10;;;;;;5055158;28;20186;-84
2023/03/06 11:15:22;;;;;;;356.70;131.43;;;6.90;99.60;;;;;;5041553;28;20668;-83
2023/03/06 11:17:47;;;;;;;37.25;22.08;;;6.80;98.40;;;;;;5054873;28;20170;-84
2023/03/06 11:20:31;;;;;;;17.50;13.57;;;6.90;98.50;;;;;;5054011;28;20186;-84
2023/03/06 11:23:11;;;;;;;148.73;58.83;;;7.00;98.90;;;;;;5056170;28;20163;-84
2023/03/06 11:25:41;;;;;;;31.58;18.40;;;7.00;98.50;;;;;;5054427;28;20202;-84
2023/03/06 11:28:15;;;;;;;10.95;9.85;;;7.00;97.90;;;;;;5055438;28;20166;-84
2023/03/06 11:30:48;;;;;;;11.02;9.93;;;6.90;97.90;;;;;;5055328;28;20167;-84
2023/03/06 11:33:36;;;;;;;12.25;10.93;;;6.80;98.30;;;;;;5055482;28;20167;-84
2023/03/06 11:36:07;;;;;;;11.88;10.68;;;6.60;97.90;;;;;;5054443;28;20214;-83
2023/03/06 11:38:53;;;;;;;11.48;10.38;;;6.40;98.20;;;;;;5054908;28;20181;-83
2023/03/06 11:41:38;;;;;;;11.55;10.45;;;6.40;99.40;;;;;;5053797;28;20218;-83
2023/03/06 11:44:33;;;;;;;12.00;10.77;;;6.20;98.80;;;;;;5054252;28;20269;-83
2023/03/06 11:47:22;;;;;;;12.18;10.98;;;6.10;98.50;;;;;;5054992;28;20217;-83
2023/03/06 11:50:24;;;;;;;18.50;16.50;;;6.00;99.50;;;;;;5054250;28;20170;-83
2023/03/06 11:52:57;;;;;;;19.77;16.38;;;6.00;99.90;;;;;;5054113;28;20220;-83
2023/03/06 11:55:28;;;;;;;19.23;15.98;;;5.90;99.90;;;;;;5054810;28;20182;-83
2023/03/06 11:58:11;;;;;;;55.38;40.90;;;6.10;99.90;;;;;;5054043;28;20178;-83
2023/03/06 12:01:03;;;;;;;21.45;18.23;;;6.20;99.90;;;;;;5054298;28;20174;-83
2023/03/06 12:03:53;;;;;;;23.10;17.00;;;6.20;99.90;;;;;;5031269;28;20277;-83
2023/03/06 12:06:38;;;;;;;16.70;14.95;;;6.20;99.90;;;;;;5053720;28;20210;-83
2023/03/06 12:09:13;;;;;;;18.48;14.55;;;6.20;99.90;;;;;;5053806;28;20224;-83
2023/03/06 12:12:02;;;;;;;23.65;19.55;;;6.50;99.90;;;;;;5054096;28;20178;-83
2023/03/06 12:14:37;;;;;;;19.70;17.35;;;6.50;99.60;;;;;;5053957;28;20186;-83
2023/03/06 12:17:15;;;;;;;16.60;14.68;;;6.70;99.40;;;;;;5054388;28;20208;-83
2023/03/06 12:19:51;;;;;;;20.27;18.17;;;7.10;99.10;;;;;;5053693;28;20185;-83
2023/03/06 12:22:31;;;;;;;21.48;19.25;;;7.10;97.80;;;;;;5053834;28;20185;-83
2023/03/06 12:25:22;;;;;;;21.38;19.17;;;6.80;97.00;;;;;;5054384;28;20187;-83
2023/03/06 12:27:50;;;;;;;14.07;12.68;;;6.70;97.90;;;;;;5053580;28;20229;-83
2023/03/06 12:30:42;;;;;;;14.93;13.52;;;6.60;97.90;;;;;;5053837;28;20178;-83
2023/03/06 12:33:19;;;;;;;16.75;14.40;;;6.50;97.80;;;;;;5032860;28;20201;-83
2023/03/06 12:36:09;;;;;;;14.05;12.65;;;6.50;97.70;;;;;;5053048;28;20280;-83
2023/03/06 12:38:45;;;;;;;13.48;12.00;;;6.50;98.20;;;;;;5054711;28;20186;-83
2023/03/06 12:41:20;;;;;;;12.30;11.00;;;6.40;98.60;;;;;;5053228;28;20178;-83
2023/03/06 12:43:52;;;;;;;14.43;12.73;;;6.20;98.40;;;;;;5054300;28;20170;-83
2023/03/06 12:46:22;;;;;;;13.23;11.93;;;6.10;98.50;;;;;;5053076;28;20213;-83
2023/03/06 12:49:11;;;;;;;14.30;12.82;;;6.10;98.80;;;;;;5053016;28;20551;-83
2023/03/06 12:51:38;;;;;;;13.05;11.38;;;6.10;98.60;;;;;;5053084;28;20663;-83
2023/03/06 12:54:05;;;;;;;11.60;10.40;;;6.20;98.70;;;;;;5053814;28;20312;-83
2023/03/06 12:56:31;;;;;;;12.00;10.80;;;6.50;98.30;;;;;;5053625;28;20194;-83
2023/03/06 12:59:01;;;;;;;12.73;10.75;;;6.90;98.00;;;;;;5052789;28;20268;-83
2023/03/06 13:01:52;;;;;;;38.80;28.10;;;7.00;96.60;;;;;;5052844;28;20174;-83
2023/03/06 13:04:21;;;;;;;32.42;22.35;;;6.90;95.50;;;;;;5053976;28;20535;-83
2023/03/06 13:07:13;;;;;;;55.28;33.35;;;6.80;95.40;;;;;;5052501;28;20244;-83
2023/03/06 13:10:30;;;;;;;21.13;15.55;;;6.70;94.60;;;;;;5053490;28;20174;-83
2023/03/06 13:13:21;;;;;;;12.90;11.25;;;6.60;94.90;;;;;;4995705;28;20175;-83
2023/03/06 13:16:17;;;;;;;10.25;9.23;;;6.80;95.80;;;;;;5012462;28;20200;-81
2023/03/06 13:18:42;;;;;;;11.32;10.13;;;7.20;94.60;;;;;;5043134;28;20656;-83
2023/03/06 13:21:46;;;;;;;13.80;11.13;;;7.50;94.70;;;;;;5052843;28;20205;-83
2023/03/06 13:24:20;;;;;;;30.58;24.73;;;7.60;94.60;;;;;;5053889;28;20197;-84
2023/03/06 13:26:47;;;;;;;36.83;28.75;;;7.50;93.80;;;;;;5053052;28;20216;-84
2023/03/06 13:29:35;;;;;;;51.42;41.58;;;7.50;94.90;;;;;;5052964;28;20178;-83
2023/03/06 13:32:00;;;;;;;30.00;26.85;;;7.50;93.90;;;;;;5052253;28;20181;-83
2023/03/06 13:34:47;;;;;;;15.48;13.63;;;7.40;94.40;;;;;;5053531;28;20167;-83
2023/03/06 13:37:12;;;;;;;15.93;12.00;;;7.40;93.80;;;;;;5052286;28;20707;-83
2023/03/06 13:39:53;;;;;;;16.00;12.90;;;7.50;93.60;;;;;;5052305;28;20182;-83
2023/03/06 13:42:26;;;;;;;18.00;14.82;;;7.50;93.80;;;;;;5052668;28;20182;-83
2023/03/06 13:44:53;;;;;;;10.48;9.38;;;7.60;93.40;;;;;;5053368;28;20186;-83
2023/03/06 13:47:33;;;;;;;26.25;20.80;;;7.60;93.60;;;;;;5052225;28;20216;-84
2023/03/06 13:50:10;;;;;;;15.45;12.35;;;7.70;92.60;;;;;;5052187;28;20234;-83
2023/03/06 13:52:58;;;;;;;8.27;7.47;;;7.60;92.10;;;;;;5052366;28;20616;-83
2023/03/06 13:55:36;;;;;;;8.80;7.88;;;7.30;91.60;;;;;;5052852;28;20208;-84
2023/03/06 13:58:14;;;;;;;11.68;8.98;;;7.10;91.70;;;;;;5052035;28;20174;-84
2023/03/06 14:00:45;;;;;;;13.13;11.63;;;7.10;92.80;;;;;;5052117;28;20173;-84
2023/03/06 14:03:38;;;;;;;15.40;11.85;;;7.00;93.40;;;;;;5053296;28;20169;-84
2023/03/06 14:06:36;;;;;;;17.08;12.73;;;6.80;93.10;;;;;;5051778;28;20707;-84
2023/03/06 14:09:10;;;;;;;48.38;32.42;;;6.80;91.90;;;;;;5051842;28;20170;-84
2023/03/06 14:11:50;;;;;;;20.75;14.95;;;7.00;92.00;;;;;;5051930;28;20192;-84
2023/03/06 14:14:16;;;;;;;13.45;11.43;;;7.10;92.60;;;;;;5052726;28;20224;-84
2023/03/06 14:16:49;;;;;;;9.02;8.13;;;7.30;92.50;;;;;;5052319;28;20206;-84
2023/03/06 14:19:16;;;;;;;25.85;10.40;;;7.30;92.30;;;;;;5051823;28;20174;-84
2023/03/06 14:21:49;;;;;;;95.75;17.55;;;7.20;91.80;;;;;;5051775;28;20189;-84
2023/03/06 14:24:18;;;;;;;278.60;32.75;;;6.90;91.50;;;;;;5052641;28;20189;-84
2023/03/06 14:26:49;;;;;;;103.35;24.42;;;6.90;92.80;;;;;;5051617;28;20256;-84
2023/03/06 14:29:28;;;;;;;231.98;31.17;;;6.80;92.60;;;;;;5051705;28;20277;-84
2023/03/06 14:31:57;;;;;;;143.38;25.55;;;6.80;93.00;;;;;;5051782;28;20197;-84
2023/03/06 14:34:25;;;;;;;45.50;24.25;;;6.80;92.90;;;;;;5053000;28;20308;-84
2023/03/06 14:36:53;;;;;;;28.42;13.57;;;6.90;92.70;;;;;;5051625;28;20245;-84
2023/03/06 14:39:26;;;;;;;20.40;10.65;;;6.80;92.70;;;;;;5051665;28;20182;-84
2023/03/06 14:42:23;;;;;;;15.65;9.88;;;6.90;92.90;;;;;;5051631;28;20228;-84
2023/03/06 14:45:01;;;;;;;13.27;9.80;;;6.90;92.70;;;;;;5051534;28;20182;-84
2023/03/06 14:47:28;;;;;;;13.60;9.43;;;6.70;92.60;;;;;;5051861;28;20216;-84
2023/03/06 14:50:22;;;;;;;11.77;8.57;;;6.60;93.00;;;;;;5052871;28;20698;-84
2023/03/06 14:53:43;;;;;;;19.83;8.00;;;6.60;92.80;;;;;;5051463;28;20182;-84
2023/03/06 14:56:20;;;;;;;24.33;9.07;;;6.60;92.40;;;;;;5055622;28;20199;-84
2023/03/06 14:58:58;;;;;;;54.65;12.30;;;6.70;92.30;;;;;;5056027;28;20248;-84
2023/03/06 15:01:37;;;;;;;24.25;9.20;;;6.60;92.20;;;;;;5055131;28;20178;-84
2023/03/06 15:04:28;;;;;;;16.60;9.13;;;6.50;92.30;;;;;;5055031;28;20182;-84
2023/03/06 15:06:55;;;;;;;11.00;8.50;;;6.50;92.40;;;;;;5054817;28;20206;-84
2023/03/06 15:09:31;;;;;;;12.07;8.25;;;6.60;92.50;;;;;;5055891;28;20178;-84
2023/03/06 15:12:03;;;;;;;11.60;8.48;;;6.70;93.30;;;;;;5056442;28;20162;-84
2023/03/06 15:14:38;;;;;;;15.98;10.70;;;6.70;92.40;;;;;;5055721;28;20181;-84
2023/03/06 15:17:22;;;;;;;10.77;8.35;;;6.60;92.80;;;;;;5054768;28;20198;-84
2023/03/06 15:19:50;;;;;;;15.27;8.55;;;6.50;92.10;;;;;;5056282;28;20166;-84
2023/03/06 15:25:57;;;;;;;9.60;8.63;;;6.40;93.10;;;;;;5055977;28;20220;-84
2023/03/06 15:28:36;;;;;;;11.52;8.80;;;6.20;93.20;;;;;;5054843;28;20594;-84
2023/03/06 15:31:38;;;;;;;10.80;8.50;;;6.10;93.50;;;;;;5055450;28;20166;-84
2023/03/06 15:34:10;;;;;;;9.50;8.25;;;6.20;94.00;;;;;;5055191;28;20162;-84
2023/03/06 15:36:37;;;;;;;10.55;9.18;;;6.10;93.40;;;;;;5054427;28;20275;-83
2023/03/06 15:39:53;;;;;;;10.80;8.55;;;6.00;93.30;;;;;;5054736;28;20255;-83
2023/03/06 15:42:25;;;;;;;9.70;8.00;;;5.90;93.50;;;;;;5054364;28;20175;-83
2023/03/06 15:44:58;;;;;;;9.85;8.20;;;5.90;93.10;;;;;;5055235;28;20170;-83
2023/03/06 15:47:24;;;;;;;9.15;8.13;;;5.90;92.60;;;;;;5055089;28;20210;-83
2023/03/06 15:50:27;;;;;;;9.85;8.20;;;5.90;92.70;;;;;;5054017;28;20181;-83
2023/03/06 15:52:53;;;;;;;8.65;7.60;;;5.90;92.80;;;;;;5054155;28;20211;-83
2023/03/06 15:55:21;;;;;;;8.57;7.68;;;5.80;92.70;;;;;;5053982;28;20179;-84
2023/03/06 15:57:48;;;;;;;9.93;8.13;;;5.80;92.20;;;;;;5053953;28;20198;-84
2023/03/06 16:00:26;;;;;;;8.90;7.57;;;5.80;93.10;;;;;;5053917;28;20631;-84
2023/03/06 16:02:51;;;;;;;9.82;8.50;;;5.70;93.40;;;;;;5054138;28;20227;-84
2023/03/06 16:05:18;;;;;;;9.57;8.57;;;5.70;93.40;;;;;;5054376;28;20177;-85
2023/03/06 16:07:43;;;;;;;10.20;8.50;;;5.60;92.80;;;;;;5054061;28;20301;-86
2023/03/06 16:13:32;;;;;;;9.70;8.15;;;5.50;94.40;;;;;;5054885;28;20201;-84
2023/03/06 16:15:58;;;;;;;11.13;9.52;;;5.50;93.90;;;;;;5053834;28;20205;-84
2023/03/06 16:18:23;;;;;;;10.65;8.57;;;5.50;94.00;;;;;;5055105;28;20178;-84
2023/03/06 16:20:49;;;;;;;9.30;8.35;;;5.50;94.10;;;;;;5053849;28;20182;-85
2023/03/06 16:23:15;;;;;;;12.40;8.93;;;5.40;93.50;;;;;;5053458;28;20182;-84
2023/03/06 16:25:43;;;;;;;10.25;9.20;;;5.40;94.60;;;;;;5054110;28;20216;-84
2023/03/06 16:28:14;;;;;;;11.95;9.80;;;5.40;94.80;;;;;;5053332;28;20177;-85
2023/03/06 16:30:47;;;;;;;12.95;9.75;;;5.30;95.50;;;;;;5054304;28;20249;-84
2023/03/06 16:33:49;;;;;;;11.20;9.68;;;5.20;95.60;;;;;;5054402;28;20162;-83
2023/03/06 16:36:20;;;;;;;13.75;9.60;;;5.30;95.40;;;;;;5053760;28;20198;-84
2023/03/06 16:38:50;;;;;;;11.93;9.80;;;5.20;95.90;;;;;;5053327;28;20178;-83
2023/03/06 16:41:31;;;;;;;11.85;10.10;;;5.10;95.50;;;;;;5053893;28;20167;-83
2023/03/06 16:48:08;;;;;;;11.93;9.98;;;5.00;95.60;;;;;;5053502;28;20222;-84
2023/03/06 16:54:39;;;;;;;12.25;9.80;;;4.90;96.20;;;;;;5034316;28;20253;-84
2023/03/06 16:57:04;;;;;;;12.87;10.30;;;4.90;96.60;;;;;;5033338;28;20206;-83
2023/03/06 16:59:30;;;;;;;12.13;9.75;;;4.90;96.60;;;;;;5034101;28;20186;-81
2023/03/06 17:01:56;;;;;;;12.35;10.50;;;4.90;96.70;;;;;;5032904;28;20201;-84
2023/03/06 17:04:21;;;;;;;14.73;11.47;;;4.80;96.70;;;;;;5033176;28;20253;-85
2023/03/06 17:07:13;;;;;;;14.80;10.60;;;4.80;97.00;;;;;;5032578;28;20211;-84
2023/03/06 17:09:38;;;;;;;12.90;10.97;;;4.70;97.50;;;;;;5033344;28;20645;-84
2023/03/06 17:12:04;;;;;;;12.47;10.57;;;4.70;97.60;;;;;;5032929;28;20179;-85
2023/03/06 17:15:00;;;;;;;11.63;10.40;;;4.70;98.00;;;;;;5032777;28;20182;-85
2023/03/06 17:17:25;;;;;;;12.47;11.17;;;4.70;98.10;;;;;;5032012;28;20198;-85
2023/03/06 17:19:51;;;;;;;14.13;11.27;;;4.60;98.30;;;;;;5033081;28;20190;-85
2023/03/06 17:22:35;;;;;;;12.47;11.07;;;4.60;98.40;;;;;;5033067;28;20186;-85
2023/03/06 17:25:26;;;;;;;14.13;10.80;;;4.50;98.80;;;;;;5032721;28;20705;-84
2023/03/06 17:27:52;;;;;;;13.30;11.23;;;4.50;98.60;;;;;;5032857;28;20178;-84
2023/03/06 17:30:18;;;;;;;14.10;12.47;;;4.50;98.60;;;;;;5032442;28;20179;-84
2023/03/06 17:32:43;;;;;;;14.37;11.90;;;4.50;99.00;;;;;;5033645;28;20274;-84
2023/03/06 17:35:22;;;;;;;15.20;13.60;;;4.50;98.90;;;;;;5032716;28;20210;-84
2023/03/06 17:38:07;;;;;;;13.93;12.20;;;4.40;99.40;;;;;;5007681;28;20537;-84
2023/03/06 17:40:47;;;;;;;16.13;12.73;;;4.40;99.30;;;;;;5007742;28;20660;-84
2023/03/06 17:43:28;;;;;;;15.87;13.03;;;4.40;99.60;;;;;;5006674;28;20176;-83
2023/03/06 17:49:29;;;;;;;16.30;12.23;;;4.30;99.80;;;;;;5007677;28;20179;-84
2023/03/06 17:51:57;;;;;;;13.87;11.83;;;4.30;99.90;;;;;;5006514;28;20195;-84
2023/03/06 17:54:25;;;;;;;15.40;13.00;;;4.30;99.90;;;;;;5006647;28;20549;-84
2023/03/06 18:00:12;;;;;;;16.97;12.43;;;4.30;99.90;;;;;;5007687;28;20168;-83
2023/03/06 18:02:38;;;;;;;16.53;13.30;;;4.30;99.90;;;;;;5006274;28;20184;-82
2023/03/06 18:05:43;;;;;;;16.00;12.60;;;4.30;99.90;;;;;;5006331;28;20191;-82
2023/03/06 18:11:31;;;;;;;13.83;12.13;;;4.20;99.90;;;;;;5007385;28;20171;-90
2023/03/06 18:13:58;;;;;;;15.13;12.73;;;4.20;99.90;;;;;;5006152;28;20267;-84
2023/03/06 18:16:25;;;;;;;15.53;12.77;;;4.20;99.90;;;;;;5005707;28;20216;-84
2023/03/06 18:19:03;;;;;;;15.87;12.90;;;4.20;99.90;;;;;;5005950;28;20262;-84
2023/03/06 18:21:41;;;;;;;16.00;13.00;;;4.20;99.90;;;;;;5006788;28;20174;-85
2023/03/06 18:24:09;;;;;;;14.03;12.53;;;4.20;99.90;;;;;;5006103;28;20225;-83
2023/03/06 18:26:56;;;;;;;17.30;13.73;;;4.10;99.90;;;;;;5005961;28;20218;-84
2023/03/06 18:29:22;;;;;;;19.33;13.43;;;4.20;99.90;;;;;;5006860;28;20183;-84
2023/03/06 18:31:49;;;;;;;17.17;14.37;;;4.10;99.90;;;;;;5005833;28;20546;-84
2023/03/06 18:34:16;;;;;;;20.17;14.47;;;4.10;99.90;;;;;;5006601;28;20190;-85
2023/03/06 18:36:42;;;;;;;17.10;13.53;;;4.00;99.90;;;;;;5005478;28;20226;-84
2023/03/06 18:39:42;;;;;;;17.37;13.90;;;4.00;99.90;;;;;;5006195;28;20187;-84
2023/03/06 18:42:15;;;;;;;20.03;13.77;;;4.10;99.90;;;;;;5007414;28;20164;-82
2023/03/06 18:44:42;;;;;;;19.10;13.67;;;4.10;99.90;;;;;;5006184;28;20164;-84
2023/03/06 18:50:30;;;;;;;16.37;13.90;;;4.20;99.90;;;;;;4993764;28;20159;-84
2023/03/06 18:52:55;;;;;;;16.80;14.17;;;4.20;99.90;;;;;;4992469;28;20176;-84
2023/03/06 18:55:21;;;;;;;16.40;14.10;;;4.30;99.90;;;;;;4992705;28;20208;-84
2023/03/06 18:57:49;;;;;;;18.37;13.20;;;4.20;99.90;;;;;;4992427;28;20215;-82
2023/03/06 19:00:15;;;;;;;16.67;13.77;;;4.30;99.90;;;;;;4993439;28;20188;-84
2023/03/06 19:02:53;;;;;;;16.27;14.03;;;4.40;99.90;;;;;;4992693;28;20212;-84
2023/03/06 19:05:19;;;;;;;15.30;13.70;;;4.40;99.90;;;;;;4992134;28;20184;-83
2023/03/06 19:07:57;;;;;;;15.27;13.67;;;4.40;99.90;;;;;;4992186;28;20321;-83
2023/03/06 19:10:22;;;;;;;16.77;14.23;;;4.40;99.90;;;;;;4992332;28;20176;-83
2023/03/06 19:12:48;;;;;;;17.90;14.50;;;4.30;99.90;;;;;;4992081;28;20181;-83
2023/03/06 19:15:14;;;;;;;19.57;14.47;;;4.30;99.90;;;;;;4992959;28;20184;-83
2023/03/06 19:17:39;;;;;;;17.80;14.27;;;4.30;99.90;;;;;;4993154;28;20204;-83
2023/03/06 19:20:05;;;;;;;19.63;14.50;;;4.20;99.90;;;;;;4992809;28;20184;-83